PHHCM EHBD-EHLE

Flight info

Callsign PHHCM
Flight time N/A
Altitude 1200
Route NYKER FLEVO
Aircraft R66/L-SGB/L

Departure

Time N/A
Airport EHBD

Arrival

Time 2026-04-21 19:39
Airport Lelystad Airport (EHLE)
Time Latitude Longitude Altitude Speed Heading
2026-04-21 18:47 51.25721 5.60129 114 ft 0 kts 118°
2026-04-21 18:58 51.25717 5.60127 126 ft 2 kts 126°
2026-04-21 18:58 51.25707 5.60123 201 ft 4 kts 16°
2026-04-21 18:59 51.25723 5.60133 123 ft 3 kts 221°
2026-04-21 18:59 51.25724 5.60132 115 ft 0 kts 194°
2026-04-21 19:00 51.25674 5.60198 140 ft 20 kts 128°
2026-04-21 19:00 51.25452 5.60023 174 ft 60 kts 209°
2026-04-21 19:00 51.25065 5.59662 309 ft 62 kts 227°
2026-04-21 19:00 51.24669 5.59180 370 ft 49 kts 227°
2026-04-21 19:01 51.24544 5.58977 725 ft 16 kts 271°
2026-04-21 19:01 51.24371 5.58697 901 ft 55 kts 223°
2026-04-21 19:01 51.24033 5.58230 1065 ft 72 kts 219°
2026-04-21 19:01 51.23933 5.57324 1042 ft 95 kts 301°
2026-04-21 19:02 51.24448 5.56761 1032 ft 92 kts
2026-04-21 19:02 51.25063 5.56981 1028 ft 92 kts 27°
2026-04-21 19:02 51.25645 5.57428 1015 ft 90 kts 30°
2026-04-21 19:02 51.26175 5.57809 865 ft 80 kts 29°
2026-04-21 19:03 51.26672 5.58245 920 ft 88 kts 32°
2026-04-21 19:03 51.27243 5.58673 931 ft 94 kts 26°
2026-04-21 19:03 51.27878 5.59030 935 ft 97 kts 22°
2026-04-21 19:03 51.28541 5.59297 940 ft 99 kts 16°
2026-04-21 19:04 51.29227 5.59488 939 ft 100 kts 14°
2026-04-21 19:04 51.29903 5.59639 942 ft 99 kts 13°
2026-04-21 19:04 51.30601 5.59764 941 ft 100 kts 10°
2026-04-21 19:04 51.31289 5.59855 939 ft 100 kts
2026-04-21 19:05 51.31991 5.59922 941 ft 101 kts
2026-04-21 19:05 51.32693 5.59972 958 ft 102 kts
2026-04-21 19:05 51.33397 5.60008 959 ft 102 kts
2026-04-21 19:05 51.34102 5.60034 958 ft 101 kts
2026-04-21 19:06 51.34805 5.60053 963 ft 101 kts
2026-04-21 19:06 51.35512 5.60063 961 ft 101 kts
2026-04-21 19:06 51.36215 5.60066 961 ft 104 kts
2026-04-21 19:06 51.36947 5.60054 964 ft 105 kts
2026-04-21 19:07 51.37683 5.60024 962 ft 105 kts
2026-04-21 19:07 51.38418 5.59986 961 ft 105 kts
2026-04-21 19:07 51.39133 5.59949 963 ft 103 kts
2026-04-21 19:07 51.39841 5.59918 962 ft 101 kts
2026-04-21 19:08 51.40549 5.59889 962 ft 101 kts
2026-04-21 19:08 51.41256 5.59852 964 ft 102 kts
2026-04-21 19:08 51.41956 5.59811 963 ft 102 kts
2026-04-21 19:08 51.42678 5.59763 963 ft 104 kts
2026-04-21 19:09 51.43404 5.59709 963 ft 104 kts
2026-04-21 19:09 51.44119 5.59656 963 ft 104 kts
2026-04-21 19:09 51.44850 5.59602 967 ft 105 kts
2026-04-21 19:09 51.45583 5.59544 965 ft 106 kts
2026-04-21 19:10 51.46324 5.59480 962 ft 107 kts
2026-04-21 19:10 51.47062 5.59419 961 ft 106 kts
2026-04-21 19:10 51.47799 5.59360 966 ft 105 kts
2026-04-21 19:10 51.48532 5.59305 962 ft 105 kts
2026-04-21 19:11 51.49256 5.59253 965 ft 106 kts
2026-04-21 19:11 51.49994 5.59198 965 ft 106 kts
2026-04-21 19:11 51.50741 5.59138 964 ft 108 kts
2026-04-21 19:11 51.51489 5.59075 964 ft 109 kts
2026-04-21 19:12 51.52000 5.59029 966 ft 110 kts
2026-04-21 19:12 51.53014 5.58931 959 ft 109 kts
2026-04-21 19:12 51.53762 5.58865 963 ft 105 kts
2026-04-21 19:12 51.54480 5.58813 964 ft 104 kts
2026-04-21 19:13 51.55210 5.58765 964 ft 105 kts
2026-04-21 19:13 51.55948 5.58713 966 ft 107 kts
2026-04-21 19:13 51.56691 5.58654 966 ft 107 kts
2026-04-21 19:13 51.57438 5.58590 964 ft 107 kts
2026-04-21 19:14 51.58171 5.58527 962 ft 107 kts
2026-04-21 19:14 51.58914 5.58466 967 ft 107 kts
2026-04-21 19:14 51.59406 5.58425 966 ft 107 kts
2026-04-21 19:14 51.60156 5.58361 964 ft 108 kts
2026-04-21 19:15 51.60910 5.58296 964 ft 108 kts
2026-04-21 19:15 51.61651 5.58232 980 ft 107 kts
2026-04-21 19:15 51.62434 5.58206 962 ft 116 kts
2026-04-21 19:15 51.63241 5.58156 960 ft 118 kts
2026-04-21 19:16 51.64068 5.58083 966 ft 120 kts
2026-04-21 19:16 51.64913 5.57991 965 ft 122 kts
2026-04-21 19:16 51.65750 5.57894 965 ft 122 kts
2026-04-21 19:16 51.66598 5.57799 966 ft 123 kts
2026-04-21 19:17 51.68298 5.57628 965 ft 121 kts
2026-04-21 19:17 51.69123 5.57559 965 ft 120 kts
2026-04-21 19:17 51.69966 5.57488 962 ft 120 kts
2026-04-21 19:18 51.70813 5.57457 981 ft 126 kts
2026-04-21 19:18 51.71700 5.57421 968 ft 129 kts
2026-04-21 19:18 51.72613 5.57348 966 ft 132 kts
2026-04-21 19:18 51.73524 5.57260 967 ft 134 kts
2026-04-21 19:19 51.74459 5.57157 962 ft 135 kts
2026-04-21 19:19 51.75393 5.57054 967 ft 134 kts
2026-04-21 19:19 51.76323 5.56956 966 ft 133 kts
2026-04-21 19:19 51.77258 5.56867 964 ft 135 kts
2026-04-21 19:20 51.78194 5.56776 964 ft 134 kts
2026-04-21 19:20 51.79119 5.56693 992 ft 133 kts
2026-04-21 19:20 51.80032 5.56620 1002 ft 133 kts
2026-04-21 19:20 51.80960 5.56548 1001 ft 132 kts
2026-04-21 19:21 51.81887 5.56474 1002 ft 134 kts
2026-04-21 19:21 51.82825 5.56393 1000 ft 135 kts
2026-04-21 19:21 51.83757 5.56310 1005 ft 136 kts
2026-04-21 19:21 51.84701 5.56221 1004 ft 136 kts
2026-04-21 19:22 51.85638 5.56132 1001 ft 134 kts
2026-04-21 19:22 51.86555 5.56052 1006 ft 133 kts
2026-04-21 19:22 51.87481 5.55983 1005 ft 133 kts
2026-04-21 19:22 51.88410 5.55910 1005 ft 134 kts
2026-04-21 19:23 51.89345 5.55828 1010 ft 134 kts
2026-04-21 19:23 51.90285 5.55744 1006 ft 135 kts
2026-04-21 19:23 51.91217 5.55656 1006 ft 136 kts
2026-04-21 19:23 51.92171 5.55562 1005 ft 137 kts
2026-04-21 19:24 51.93128 5.55465 1007 ft 137 kts
2026-04-21 19:24 51.94079 5.55371 1010 ft 136 kts
2026-04-21 19:24 51.95010 5.55291 1010 ft 136 kts
2026-04-21 19:24 51.95960 5.55222 1006 ft 136 kts
2026-04-21 19:25 51.96915 5.55153 1005 ft 136 kts
2026-04-21 19:25 51.97851 5.55080 1007 ft 135 kts
2026-04-21 19:25 51.98797 5.55007 1005 ft 136 kts
2026-04-21 19:25 51.99746 5.54928 1009 ft 137 kts
2026-04-21 19:26 52.00706 5.54839 1007 ft 138 kts
2026-04-21 19:26 52.01657 5.54750 1005 ft 138 kts
2026-04-21 19:26 52.02618 5.54665 1009 ft 138 kts
2026-04-21 19:26 52.03574 5.54572 996 ft 137 kts
2026-04-21 19:27 52.04520 5.54489 1007 ft 136 kts
2026-04-21 19:27 52.05454 5.54418 1006 ft 135 kts
2026-04-21 19:27 52.06399 5.54354 1015 ft 136 kts
2026-04-21 19:27 52.07352 5.54278 1009 ft 137 kts
2026-04-21 19:28 52.08293 5.54184 1005 ft 137 kts
2026-04-21 19:28 52.09242 5.54090 1003 ft 136 kts
2026-04-21 19:28 52.10181 5.54003 1008 ft 135 kts
2026-04-21 19:28 52.11118 5.53926 1009 ft 135 kts
2026-04-21 19:29 52.12057 5.53845 1007 ft 135 kts
2026-04-21 19:29 52.12981 5.53762 1010 ft 134 kts
2026-04-21 19:29 52.13921 5.53681 1010 ft 134 kts
2026-04-21 19:29 52.14854 5.53597 1006 ft 134 kts
2026-04-21 19:30 52.15790 5.53511 1009 ft 135 kts
2026-04-21 19:30 52.16729 5.53425 1011 ft 134 kts
2026-04-21 19:30 52.17661 5.53337 1010 ft 133 kts
2026-04-21 19:30 52.18577 5.53260 1013 ft 133 kts
2026-04-21 19:31 52.19503 5.53183 1012 ft 133 kts
2026-04-21 19:31 52.20434 5.53104 1028 ft 133 kts
2026-04-21 19:31 52.21361 5.53026 1026 ft 133 kts
2026-04-21 19:31 52.22282 5.52943 1026 ft 134 kts
2026-04-21 19:32 52.23216 5.52889 1025 ft 133 kts
2026-04-21 19:32 52.24116 5.53162 1025 ft 130 kts 20°
2026-04-21 19:32 52.24977 5.53615 1027 ft 129 kts 23°
2026-04-21 19:32 52.25813 5.54103 1028 ft 129 kts 22°
2026-04-21 19:33 52.26378 5.54422 1028 ft 129 kts 22°
2026-04-21 19:33 52.27519 5.55017 1030 ft 129 kts 21°
2026-04-21 19:33 52.28388 5.55436 1028 ft 129 kts 21°
2026-04-21 19:33 52.29241 5.55833 1027 ft 129 kts 20°
2026-04-21 19:34 52.30104 5.56230 1027 ft 128 kts 20°
2026-04-21 19:34 52.30960 5.56624 1025 ft 128 kts 20°
2026-04-21 19:34 52.31823 5.57025 1028 ft 129 kts 20°
2026-04-21 19:34 52.32689 5.57427 1029 ft 129 kts 20°
2026-04-21 19:35 52.33556 5.57829 1027 ft 129 kts 20°
2026-04-21 19:35 52.35255 5.58634 1028 ft 127 kts 21°
2026-04-21 19:35 52.36104 5.59041 1028 ft 127 kts 21°
2026-04-21 19:36 52.36956 5.59447 1029 ft 127 kts 21°
2026-04-21 19:36 52.37808 5.59856 1029 ft 127 kts 21°
2026-04-21 19:36 52.38691 5.59950 1026 ft 135 kts 354°
2026-04-21 19:36 52.39560 5.59275 1025 ft 143 kts 332°
2026-04-21 19:37 52.40328 5.58205 1030 ft 145 kts 322°
2026-04-21 19:37 52.41049 5.57032 1023 ft 145 kts 321°
2026-04-21 19:37 52.41771 5.55893 1028 ft 145 kts 323°
2026-04-21 19:37 52.42516 5.54794 1011 ft 141 kts 336°
2026-04-21 19:38 52.43312 5.54997 1117 ft 113 kts 38°
2026-04-21 19:38 52.43974 5.55792 1060 ft 122 kts 39°
2026-04-21 19:38 52.44459 5.56287 1040 ft 126 kts 27°
2026-04-21 19:38 52.45627 5.55892 1037 ft 146 kts 326°
2026-04-21 19:39 52.46148 5.54387 724 ft 166 kts 285°
2026-04-21 19:39 52.46060 5.52793 104 ft 108 kts 251°
2026-04-21 19:39 52.45689 5.52102 30 ft 48 kts 249°
2026-04-21 19:39 52.45502 5.51786 44 ft 34 kts 143°
2026-04-21 19:40 52.45422 5.51897 31 ft 16 kts 150°
2026-04-21 19:40 52.45350 5.51913 11 ft 13 kts 179°
2026-04-21 19:40 52.45318 5.51932 -5 ft 2 kts 56°
2026-04-21 19:40 52.45322 5.51935 -11 ft 0 kts 64°
2026-04-21 19:41 52.45320 5.51936 -11 ft 0 kts 60°
2026-04-21 19:41 52.45320 5.51935 -9 ft 2 kts 50°
2026-04-21 19:41 52.45319 5.51934 -11 ft 0 kts 33°